Trident Challenger — V7TY7 — position and weather

sailwx.info

Track history (hours):
 
Tides and Currents Weather Stations Pressure Air Temp Water Temp Dewpoint Dewpoint Depression Visibility Wind Speed Wind Dir Waves Ship Positions

Trident Challenger

Last reported at 2014-Aug-29 21:18 UTC. Time now 2014-Oct-02 16:42 UTC.
Position N 34°07' W 009°02'.
Warning: this ship's position is 33 days out of date.

Length 189 m; draft 17.6 m.

Type: Cargo ship. MMSI: 538003908.

Date/timePositionNaut miles runAvg speedWind from/ knotsBaromVisibWave heightAir tempDewpointWater temp
2014-Aug-29 21:18N 34°07' W 009°02'1012.2
2014-Aug-29 20:30N 34°16' W 008°56'1212.6
2014-Aug-29 19:33N 34°26' W 008°48'1312.5
2014-Aug-29 18:33N 34°36' W 008°40'  
2014-Aug-26 04:19N 36°17' W 006°30'912.0
2014-Aug-26 03:33N 36°08' W 006°27'1413.5
2014-Aug-26 02:32N 35°59' W 006°14'211 6.6
2014-Aug-24 18:33N 36°27' W 001°55'1813.7
2014-Aug-24 17:15N 36°31' W 001°33'913.3
2014-Aug-24 16:33N 36°32' W 001°22'2013.3
2014-Aug-24 15:04N 36°35' W 000°58'3613.2
2014-Aug-24 12:21N 36°41' W 000°14'38811.8
2014-Aug-23 03:33N 37°36' E 007°48'1313.3
2014-Aug-23 02:33N 37°36' E 008°05'1413.3
2014-Aug-23 01:32N 37°36' E 008°22'2713.3
2014-Aug-22 23:29N 37°37' E 008°56'1513.0
2014-Aug-22 22:18N 37°38' E 009°16'1012.8
2014-Aug-22 21:33N 37°38' E 009°28'1312.9
2014-Aug-22 20:33N 37°39' E 009°44'1212.2
2014-Aug-22 19:33N 37°39' E 009°59'1312.9
2014-Aug-22 18:33N 37°38' E 010°16'1313.1
2014-Aug-22 17:33N 37°35' E 010°32'1313.3
2014-Aug-22 16:33N 37°32' E 010°48'1413.6
2014-Aug-22 15:33N 37°29' E 011°05'1313.4
2014-Aug-22 14:33N 37°24' E 011°20'7813.0
2014-Aug-22 08:33N 36°33' E 012°34'1312.9
2014-Aug-22 07:33N 36°24' E 012°46'2013.2
2014-Aug-22 06:05N 36°10' E 013°02'712.9
2014-Aug-22 05:33N 36°05' E 013°07'1312.6
2014-Aug-22 04:33N 35°55' E 013°18'1312.7
2014-Aug-22 03:33N 35°46' E 013°29'1312.7
2014-Aug-22 02:33N 35°37' E 013°39'1312.8
2014-Aug-22 01:33N 35°27' E 013°50'1312.7
2014-Aug-22 00:33N 35°18' E 014°00'1713.3
2014-Aug-21 23:17N 35°05' E 014°14'2413.7
2014-Aug-21 21:32N 34°48' E 014°34'1413.9
2014-Aug-21 20:33N 34°38' E 014°45'1413.7
2014-Aug-21 19:33N 34°28' E 014°57'1413.6
2014-Aug-21 18:33N 34°19' E 015°09'1313.5
2014-Aug-21 17:33N 34°10' E 015°21'3 3.4
2014-Aug-21 16:32N 34°07' E 015°23'1 1.1
2014-Aug-21 15:32N 34°06' E 015°23'1 1.2
2014-Aug-21 14:32N 34°05' E 015°23'1 1.1
2014-Aug-21 13:32N 34°03' E 015°23'1 1.2
2014-Aug-21 12:32N 34°02' E 015°22'1 1.3
2014-Aug-21 11:32N 34°01' E 015°22'1 1.5
2014-Aug-21 10:32N 33°60' E 015°21'2 1.7
2014-Aug-21 09:32N 33°58' E 015°20'2 1.9
2014-Aug-21 08:29N 33°56' E 015°19'2 1.9
2014-Aug-21 07:32N 33°55' E 015°19'2 2.0
2014-Aug-21 06:32N 33°53' E 015°18'2 1.8
2014-Aug-21 05:32N 33°51' E 015°17'1 1.4
2014-Aug-21 04:32N 33°50' E 015°17'1 1.2
2014-Aug-21 03:32N 33°49' E 015°17'1 1.2
2014-Aug-21 02:29N 33°47' E 015°16'1 1.2
2014-Aug-21 01:26N 33°46' E 015°16'1 1.1
2014-Aug-21 00:29N 33°45' E 015°16'1 1.2
2014-Aug-20 23:32N 33°44' E 015°16'1 1.3
2014-Aug-20 22:32N 33°43' E 015°16'1 1.3
2014-Aug-20 21:32N 33°41' E 015°17'1 1.3
2014-Aug-20 20:32N 33°40' E 015°17'1 1.3
2014-Aug-20 19:26N 33°39' E 015°18'1 1.2
2014-Aug-20 18:32N 33°38' E 015°18'1 1.1
2014-Aug-20 17:32N 33°37' E 015°18'1 1.1
2014-Aug-20 16:32N 33°36' E 015°19'1 1.1
2014-Aug-20 15:32N 33°34' E 015°19'1 1.1
2014-Aug-20 14:32N 33°33' E 015°19'1 1.1
2014-Aug-20 13:32N 33°32' E 015°19'1 1.2
2014-Aug-20 12:32N 33°31' E 015°19'1 1.3
2014-Aug-20 11:32N 33°30' E 015°19'1 1.3
2014-Aug-20 10:32N 33°29' E 015°18'1 1.3
2014-Aug-20 09:29N 33°27' E 015°18'1 1.3
2014-Aug-20 08:32N 33°26' E 015°18'1 1.2
2014-Aug-20 07:32N 33°25' E 015°18'1 1.1
2014-Aug-20 06:32N 33°24' E 015°18'1 1.1
2014-Aug-20 05:29N 33°23' E 015°18'2 1.2
2014-Aug-20 03:29N 33°20' E 015°17'1 1.3
2014-Aug-20 02:32N 33°19' E 015°17'1 1.2
2014-Aug-20 01:29N 33°18' E 015°18'1 1.3
2014-Aug-20 00:32N 33°16' E 015°18'2 1.3
2014-Aug-19 23:14N 33°15' E 015°19'1 1.4
2014-Aug-19 22:32N 33°14' E 015°19'1 1.3
2014-Aug-19 21:32N 33°13' E 015°20'  
Track history (hours):
 
Tides and Currents Weather Stations Pressure Air Temp Water Temp Dewpoint Dewpoint Depression Visibility Wind Speed Wind Dir Waves Ship Positions

Trident Challenger

Last reported at 2014-Aug-29 21:18 UTC. Time now 2014-Oct-02 16:42 UTC.
Position N 34°07' W 009°02'.
Warning: this ship's position is 33 days out of date.

Length 189 m; draft 17.6 m.

Type: Cargo ship. MMSI: 538003908.

Date/timePositionNaut miles runAvg speedWind from/ knotsBaromVisibWave heightAir tempDewpointWater temp
2014-Aug-29 21:18N 34°07' W 009°02'1012.2
2014-Aug-29 20:30N 34°16' W 008°56'1212.6
2014-Aug-29 19:33N 34°26' W 008°48'1312.5
2014-Aug-29 18:33N 34°36' W 008°40'  
2014-Aug-26 04:19N 36°17' W 006°30'912.0
2014-Aug-26 03:33N 36°08' W 006°27'1413.5
2014-Aug-26 02:32N 35°59' W 006°14'211 6.6
2014-Aug-24 18:33N 36°27' W 001°55'1813.7
2014-Aug-24 17:15N 36°31' W 001°33'913.3
2014-Aug-24 16:33N 36°32' W 001°22'2013.3
2014-Aug-24 15:04N 36°35' W 000°58'3613.2
2014-Aug-24 12:21N 36°41' W 000°14'38811.8
2014-Aug-23 03:33N 37°36' E 007°48'1313.3
2014-Aug-23 02:33N 37°36' E 008°05'1413.3
2014-Aug-23 01:32N 37°36' E 008°22'2713.3
2014-Aug-22 23:29N 37°37' E 008°56'1513.0
2014-Aug-22 22:18N 37°38' E 009°16'1012.8
2014-Aug-22 21:33N 37°38' E 009°28'1312.9
2014-Aug-22 20:33N 37°39' E 009°44'1212.2
2014-Aug-22 19:33N 37°39' E 009°59'1312.9
2014-Aug-22 18:33N 37°38' E 010°16'1313.1
2014-Aug-22 17:33N 37°35' E 010°32'1313.3
2014-Aug-22 16:33N 37°32' E 010°48'1413.6
2014-Aug-22 15:33N 37°29' E 011°05'1313.4
2014-Aug-22 14:33N 37°24' E 011°20'7813.0
2014-Aug-22 08:33N 36°33' E 012°34'1312.9
2014-Aug-22 07:33N 36°24' E 012°46'2013.2
2014-Aug-22 06:05N 36°10' E 013°02'712.9
2014-Aug-22 05:33N 36°05' E 013°07'1312.6
2014-Aug-22 04:33N 35°55' E 013°18'1312.7
2014-Aug-22 03:33N 35°46' E 013°29'1312.7
2014-Aug-22 02:33N 35°37' E 013°39'1312.8
2014-Aug-22 01:33N 35°27' E 013°50'1312.7
2014-Aug-22 00:33N 35°18' E 014°00'1713.3
2014-Aug-21 23:17N 35°05' E 014°14'2413.7
2014-Aug-21 21:32N 34°48' E 014°34'1413.9
2014-Aug-21 20:33N 34°38' E 014°45'1413.7
2014-Aug-21 19:33N 34°28' E 014°57'1413.6
2014-Aug-21 18:33N 34°19' E 015°09'1313.5
2014-Aug-21 17:33N 34°10' E 015°21'3 3.4
2014-Aug-21 16:32N 34°07' E 015°23'1 1.1
2014-Aug-21 15:32N 34°06' E 015°23'1 1.2
2014-Aug-21 14:32N 34°05' E 015°23'1 1.1
2014-Aug-21 13:32N 34°03' E 015°23'1 1.2
2014-Aug-21 12:32N 34°02' E 015°22'1 1.3
2014-Aug-21 11:32N 34°01' E 015°22'1 1.5
2014-Aug-21 10:32N 33°60' E 015°21'2 1.7
2014-Aug-21 09:32N 33°58' E 015°20'2 1.9
2014-Aug-21 08:29N 33°56' E 015°19'2 1.9
2014-Aug-21 07:32N 33°55' E 015°19'2 2.0
2014-Aug-21 06:32N 33°53' E 015°18'2 1.8
2014-Aug-21 05:32N 33°51' E 015°17'1 1.4
2014-Aug-21 04:32N 33°50' E 015°17'1 1.2
2014-Aug-21 03:32N 33°49' E 015°17'1 1.2
2014-Aug-21 02:29N 33°47' E 015°16'1 1.2
2014-Aug-21 01:26N 33°46' E 015°16'1 1.1
2014-Aug-21 00:29N 33°45' E 015°16'1 1.2
2014-Aug-20 23:32N 33°44' E 015°16'1 1.3
2014-Aug-20 22:32N 33°43' E 015°16'1 1.3
2014-Aug-20 21:32N 33°41' E 015°17'1 1.3
2014-Aug-20 20:32N 33°40' E 015°17'1 1.3
2014-Aug-20 19:26N 33°39' E 015°18'1 1.2
2014-Aug-20 18:32N 33°38' E 015°18'1 1.1
2014-Aug-20 17:32N 33°37' E 015°18'1 1.1
2014-Aug-20 16:32N 33°36' E 015°19'1 1.1
2014-Aug-20 15:32N 33°34' E 015°19'1 1.1
2014-Aug-20 14:32N 33°33' E 015°19'1 1.1
2014-Aug-20 13:32N 33°32' E 015°19'1 1.2
2014-Aug-20 12:32N 33°31' E 015°19'1 1.3
2014-Aug-20 11:32N 33°30' E 015°19'1 1.3
2014-Aug-20 10:32N 33°29' E 015°18'1 1.3
2014-Aug-20 09:29N 33°27' E 015°18'1 1.3
2014-Aug-20 08:32N 33°26' E 015°18'1 1.2
2014-Aug-20 07:32N 33°25' E 015°18'1 1.1
2014-Aug-20 06:32N 33°24' E 015°18'1 1.1
2014-Aug-20 05:29N 33°23' E 015°18'2 1.2
2014-Aug-20 03:29N 33°20' E 015°17'1 1.3
2014-Aug-20 02:32N 33°19' E 015°17'1 1.2
2014-Aug-20 01:29N 33°18' E 015°18'1 1.3
2014-Aug-20 00:32N 33°16' E 015°18'2 1.3
2014-Aug-19 23:14N 33°15' E 015°19'1 1.4
2014-Aug-19 22:32N 33°14' E 015°19'1 1.3
2014-Aug-19 21:32N 33°13' E 015°20'  

Dump ship's entire track history